createdAt,value
2023-04-07T00:01:50.298Z,102064.78
2023-04-07T00:04:18.710Z,102068.66
2023-04-07T00:06:46.980Z,102076.41
2023-04-07T00:09:15.058Z,102082.19
2023-04-07T00:11:43.134Z,102079.69
2023-04-07T00:14:11.412Z,102076.59
2023-04-07T00:16:39.522Z,102074.13
2023-04-07T00:19:09.095Z,102074.34
2023-04-07T00:21:37.150Z,102076.31
2023-04-07T00:24:05.674Z,102081.81
2023-04-07T00:26:33.878Z,102079.06
2023-04-07T00:29:02.018Z,102080.16
2023-04-07T00:31:30.258Z,102074.06
2023-04-07T00:33:58.785Z,102074.44
2023-04-07T00:36:28.850Z,102071.81
2023-04-07T00:38:56.981Z,102069.19
2023-04-07T00:41:25.068Z,102070.16
2023-04-07T00:43:53.687Z,102067.63
2023-04-07T00:46:24.564Z,102070.41
2023-04-07T00:48:52.774Z,102069.41
2023-04-07T00:51:22.449Z,102066.78
2023-04-07T00:53:51.977Z,102064.31
2023-04-07T00:56:20.145Z,102063.72
2023-04-07T00:58:48.523Z,102066.47
2023-04-07T01:01:20.420Z,102071.88
2023-04-07T01:03:58.796Z,102071.28
2023-04-07T01:06:32.083Z,102063.25
2023-04-07T01:09:06.312Z,102064.47
2023-04-07T01:11:42.088Z,102063.66
2023-04-07T01:14:12.554Z,102062.13
2023-04-07T01:16:44.292Z,102062.97
2023-04-07T01:19:18.094Z,102060.44
2023-04-07T01:21:48.130Z,102061.69
2023-04-07T01:24:43.748Z,102056.41
2023-04-07T01:27:21.708Z,102058.56
2023-04-07T01:29:53.542Z,102062.53
2023-04-07T01:32:22.886Z,102056.00
2023-04-07T01:34:53.685Z,102062.38
2023-04-07T01:37:23.118Z,102058.19
2023-04-07T01:39:51.360Z,102054.56
2023-04-07T01:42:21.392Z,102057.94
2023-04-07T01:44:52.454Z,102052.78
2023-04-07T01:47:20.948Z,102054.94
2023-04-07T01:49:51.131Z,102057.00
2023-04-07T01:52:19.450Z,102058.94
2023-04-07T01:54:47.996Z,102054.19
2023-04-07T01:57:16.487Z,102056.81
2023-04-07T01:59:44.670Z,102062.06
2023-04-07T02:02:14.376Z,102062.44
2023-04-07T02:04:53.847Z,102059.81
2023-04-07T02:07:26.305Z,102054.66
2023-04-07T02:09:57.907Z,102050.50
2023-04-07T02:12:27.582Z,102048.38
2023-04-07T02:14:56.913Z,102058.75
2023-04-07T02:17:28.345Z,102053.75
2023-04-07T02:19:59.291Z,102048.63
2023-04-07T02:22:28.292Z,102061.44
2023-04-07T02:24:56.401Z,102054.63
2023-04-07T02:27:24.540Z,102060.00
2023-04-07T02:29:52.606Z,102056.28
2023-04-07T02:32:20.827Z,102056.53
2023-04-07T02:34:50.309Z,102046.88
2023-04-07T02:37:18.617Z,102048.66
2023-04-07T02:39:46.783Z,102053.06
2023-04-07T02:42:14.874Z,102054.03
2023-04-07T02:44:42.974Z,102051.66
2023-04-07T02:47:11.232Z,102052.84
2023-04-07T02:49:39.297Z,102051.88
2023-04-07T02:52:08.895Z,102046.63
2023-04-07T02:54:37.449Z,102045.66
2023-04-07T02:57:05.946Z,102049.75
2023-04-07T02:59:34.170Z,102046.41
2023-04-07T03:02:02.537Z,102040.69
2023-04-07T03:04:31.821Z,102042.34
2023-04-07T03:07:00.055Z,102040.91
2023-04-07T03:09:29.598Z,102050.38
2023-04-07T03:11:58.501Z,102045.84
2023-04-07T03:14:26.872Z,102039.88
2023-04-07T03:16:54.997Z,102037.13
2023-04-07T03:19:23.315Z,102042.38
2023-04-07T03:21:51.756Z,102037.13
2023-04-07T03:24:19.991Z,102039.75
2023-04-07T03:26:49.681Z,102045.00
2023-04-07T03:29:17.808Z,102042.59
2023-04-07T03:31:46.633Z,102044.28
2023-04-07T03:34:14.794Z,102047.97
2023-04-07T03:36:43.050Z,102043.78
2023-04-07T03:39:11.226Z,102046.41
2023-04-07T03:41:39.351Z,102043.78
2023-04-07T03:44:08.958Z,102040.22
2023-04-07T03:46:37.261Z,102041.66
2023-04-07T03:49:05.376Z,102040.09
2023-04-07T03:51:34.208Z,102039.13
2023-04-07T03:54:02.343Z,102040.09
2023-04-07T03:56:30.487Z,102039.13
2023-04-07T03:58:58.646Z,102044.28
2023-04-07T04:01:28.283Z,102044.28
2023-04-07T04:03:56.806Z,102041.75
2023-04-07T04:06:25.222Z,102047.97
2023-04-07T04:08:53.540Z,102041.28
2023-04-07T04:11:22.282Z,102039.00
2023-04-07T04:13:50.466Z,102039.84
2023-04-07T04:16:18.718Z,102038.19
2023-04-07T04:18:48.316Z,102037.22
2023-04-07T04:21:16.608Z,102031.97
2023-04-07T04:23:44.867Z,102031.97
2023-04-07T04:26:12.971Z,102031.97
2023-04-07T04:28:41.076Z,102039.75
2023-04-07T04:31:09.307Z,102038.19
2023-04-07T04:33:37.406Z,102037.22
2023-04-07T04:36:07.804Z,102027.81
2023-04-07T04:38:36.033Z,102031.97
2023-04-07T04:41:04.138Z,102027.06
2023-04-07T04:43:32.316Z,102037.56
2023-04-07T04:46:00.466Z,102028.16
2023-04-07T04:48:28.653Z,102033.16
2023-04-07T04:50:56.784Z,102033.66
2023-04-07T04:53:26.381Z,102035.81
2023-04-07T04:55:54.621Z,102038.66
2023-04-07T04:58:23.148Z,102042.47
2023-04-07T05:00:51.636Z,102038.91
2023-04-07T05:03:19.998Z,102036.88
2023-04-07T05:05:49.362Z,102033.66
2023-04-07T05:08:17.564Z,102036.03
2023-04-07T05:10:47.990Z,102029.94
2023-04-07T05:13:16.457Z,102039.63
2023-04-07T05:15:44.644Z,102034.50
2023-04-07T05:18:12.953Z,102031.88
2023-04-07T05:20:41.558Z,102036.88
2023-04-07T05:23:09.692Z,102042.84
2023-04-07T05:25:38.012Z,102041.88
2023-04-07T05:28:07.854Z,102040.34
2023-04-07T05:30:35.965Z,102048.31
2023-04-07T05:33:04.088Z,102045.00
2023-04-07T05:35:32.316Z,102039.84
2023-04-07T05:38:00.664Z,102049.16
2023-04-07T05:40:30.285Z,102050.00
2023-04-07T05:42:58.502Z,102050.84
2023-04-07T05:45:28.099Z,102045.47
2023-04-07T05:47:56.499Z,102047.88
2023-04-07T05:50:24.729Z,102053.94
2023-04-07T05:52:52.948Z,102051.19
2023-04-07T05:55:21.608Z,102043.31
2023-04-07T05:57:50.092Z,102052.03
2023-04-07T06:00:19.604Z,102044.84
2023-04-07T06:02:49.349Z,102048.22
2023-04-07T06:05:17.867Z,102047.03
2023-04-07T06:07:46.028Z,102047.84
2023-04-07T06:10:14.282Z,102053.56
2023-04-07T06:12:42.536Z,102051.56
2023-04-07T06:15:11.243Z,102058.28
2023-04-07T06:17:39.390Z,102051.69
2023-04-07T06:20:10.037Z,102047.72
2023-04-07T06:22:38.178Z,102049.28
2023-04-07T06:25:07.185Z,102056.09
2023-04-07T06:27:35.512Z,102054.75
2023-04-07T06:30:03.659Z,102053.56
2023-04-07T06:32:31.994Z,102046.97
2023-04-07T06:35:00.211Z,102057.00
2023-04-07T06:37:29.844Z,102051.38
2023-04-07T06:39:57.910Z,102052.78
2023-04-07T06:42:26.354Z,102051.00
2023-04-07T06:44:54.685Z,102049.91
2023-04-07T06:47:22.875Z,102056.00
2023-04-07T06:49:51.208Z,102063.88
2023-04-07T06:52:19.365Z,102052.41
2023-04-07T06:54:48.873Z,102056.00
2023-04-07T06:57:17.479Z,102054.69
2023-04-07T06:59:45.689Z,102054.69
2023-04-07T07:02:14.024Z,102062.34
2023-04-07T07:04:42.394Z,102054.19
2023-04-07T07:07:10.524Z,102047.88
2023-04-07T07:09:38.600Z,102051.78
2023-04-07T07:12:08.525Z,102064.25
2023-04-07T07:14:36.723Z,102061.59
2023-04-07T07:17:04.966Z,102060.78
2023-04-07T07:19:33.166Z,102067.56
2023-04-07T07:22:04.187Z,102067.19
2023-04-07T07:24:34.075Z,102066.13
2023-04-07T07:27:03.619Z,102065.47
2023-04-07T07:29:34.240Z,102064.13
2023-04-07T07:32:02.633Z,102069.16
2023-04-07T07:34:31.314Z,102065.16
2023-04-07T07:37:00.041Z,102061.19
2023-04-07T07:39:28.531Z,102055.31
2023-04-07T07:41:57.355Z,102059.88
2023-04-07T07:44:25.529Z,102060.63
2023-04-07T07:46:55.376Z,102070.41
2023-04-07T07:49:23.696Z,102061.88
2023-04-07T07:51:51.895Z,102058.84
2023-04-07T07:54:20.071Z,102063.19
2023-04-07T07:56:48.561Z,102056.19
2023-04-07T07:59:17.842Z,102056.22
2023-04-07T08:01:46.079Z,102063.06
2023-04-07T08:04:15.959Z,102054.78
2023-04-07T08:06:44.127Z,102050.25
2023-04-07T08:09:12.294Z,102047.81
2023-04-07T08:11:40.380Z,102049.25
2023-04-07T08:14:09.874Z,102044.25
2023-04-07T08:16:38.355Z,102036.75
2023-04-07T08:19:06.485Z,102040.09
2023-04-07T08:21:36.129Z,102035.66
2023-04-07T08:24:04.616Z,102034.69
2023-04-07T08:26:32.902Z,102037.63
2023-04-07T08:29:01.288Z,102039.00
2023-04-07T08:31:29.578Z,102028.47
2023-04-07T08:33:59.128Z,102035.41
2023-04-07T08:36:28.098Z,102024.56
2023-04-07T08:38:58.737Z,102025.13
2023-04-07T08:41:35.004Z,102033.75
2023-04-07T08:44:03.601Z,102029.00
2023-04-07T08:46:32.308Z,102021.78
2023-04-07T08:49:01.957Z,102030.78
2023-04-07T08:51:31.877Z,102018.94
2023-04-07T08:54:08.516Z,102011.16
2023-04-07T08:56:40.923Z,102014.16
2023-04-07T08:59:11.556Z,102011.41
2023-04-07T09:01:41.183Z,102008.16
2023-04-07T09:04:11.658Z,102006.03
2023-04-07T09:06:40.088Z,102006.09
2023-04-07T09:09:09.693Z,102011.59
2023-04-07T09:11:40.271Z,102010.63
2023-04-07T09:14:08.920Z,102013.41
2023-04-07T09:16:37.302Z,102015.50
2023-04-07T09:19:06.441Z,102016.22
2023-04-07T09:21:49.897Z,102020.06
2023-04-07T09:24:31.970Z,102010.00
2023-04-07T09:27:17.054Z,102012.38
2023-04-07T09:29:47.768Z,102016.47
2023-04-07T09:32:36.679Z,102026.72
2023-04-07T09:35:05.085Z,102031.34
2023-04-07T09:37:33.245Z,102030.19
2023-04-07T09:40:03.550Z,102021.00
2023-04-07T09:42:32.755Z,102026.91
2023-04-07T09:45:01.730Z,102028.94
2023-04-07T09:47:30.932Z,102034.84
2023-04-07T09:50:02.054Z,102029.53
2023-04-07T09:52:52.013Z,102030.59
2023-04-07T09:55:22.990Z,102034.66
2023-04-07T09:57:52.058Z,102031.91
2023-04-07T10:00:20.835Z,102030.16
2023-04-07T10:02:51.401Z,102033.69
2023-04-07T10:05:21.770Z,102032.81
2023-04-07T10:07:50.311Z,102035.59
2023-04-07T10:10:18.514Z,102032.22
2023-04-07T10:12:51.216Z,102029.50
2023-04-07T10:15:19.447Z,102032.44
2023-04-07T10:17:49.510Z,102040.91
2023-04-07T10:20:21.215Z,102028.91
2023-04-07T10:22:51.614Z,102045.59
2023-04-07T10:25:22.731Z,102046.13
2023-04-07T10:27:54.907Z,102036.91
2023-04-07T10:30:27.182Z,102041.88
2023-04-07T10:32:56.378Z,102043.22
2023-04-07T10:35:25.304Z,102035.13
2023-04-07T10:38:16.417Z,102039.50
2023-04-07T10:40:45.005Z,102037.06
2023-04-07T10:43:25.176Z,102036.28
2023-04-07T10:45:56.607Z,102036.03
2023-04-07T10:48:24.726Z,102033.91
2023-04-07T10:51:20.635Z,102041.34
2023-04-07T10:54:23.014Z,102041.75
2023-04-07T10:57:12.049Z,102037.09
2023-04-07T10:59:47.108Z,102028.03
2023-04-07T11:02:35.375Z,102029.31
2023-04-07T11:05:04.214Z,102020.09
2023-04-07T11:07:50.200Z,102013.72
2023-04-07T11:10:19.594Z,102023.31
2023-04-07T11:13:01.880Z,102017.25
2023-04-07T11:15:31.757Z,102028.72
2023-04-07T11:18:17.617Z,102027.59
2023-04-07T11:20:51.780Z,102019.81
2023-04-07T11:23:23.179Z,102023.81
2023-04-07T11:25:53.068Z,102025.34
2023-04-07T11:28:21.459Z,102015.88
2023-04-07T11:30:54.144Z,102021.03
2023-04-07T11:33:24.115Z,102018.25
2023-04-07T11:35:55.746Z,102015.97
2023-04-07T11:38:26.189Z,102015.16
2023-04-07T11:40:55.325Z,102022.47
2023-04-07T11:43:26.032Z,102020.13
2023-04-07T11:46:10.887Z,102022.13
2023-04-07T11:48:42.057Z,102021.16
2023-04-07T11:51:18.418Z,102027.16
2023-04-07T11:53:47.520Z,102021.97
2023-04-07T11:56:18.957Z,102027.16
2023-04-07T11:58:50.997Z,102022.19
2023-04-07T12:01:21.044Z,102028.50
2023-04-07T12:04:02.230Z,102028.81
2023-04-07T12:06:34.896Z,102018.19
2023-04-07T12:09:04.510Z,102030.44
2023-04-07T12:11:33.104Z,102030.78
2023-04-07T12:14:04.951Z,102034.25
2023-04-07T12:16:39.673Z,102031.97
2023-04-07T12:19:07.872Z,102032.97
2023-04-07T12:21:35.998Z,102030.00
2023-04-07T12:24:04.316Z,102036.94
2023-04-07T12:26:32.405Z,102033.06
2023-04-07T12:29:05.287Z,102025.81
2023-04-07T12:31:35.303Z,102033.13
2023-04-07T12:34:04.287Z,102022.84
2023-04-07T12:36:33.422Z,102017.88
2023-04-07T12:39:01.591Z,102033.47
2023-04-07T12:41:29.946Z,102021.84
2023-04-07T12:43:58.162Z,102021.38
2023-04-07T12:46:27.017Z,102020.03
2023-04-07T12:48:56.763Z,102029.16
2023-04-07T12:51:25.241Z,102024.69
2023-04-07T12:53:54.324Z,102030.16
2023-04-07T12:56:24.242Z,102024.34
2023-04-07T12:58:53.562Z,102020.03
2023-04-07T13:01:21.832Z,102023.84
2023-04-07T13:03:50.171Z,102028.50
2023-04-07T13:06:20.396Z,102029.16
2023-04-07T13:08:48.473Z,102017.19
2023-04-07T13:11:16.684Z,102028.50
2023-04-07T13:13:44.948Z,102024.50
2023-04-07T13:16:13.177Z,102023.50
2023-04-07T13:18:41.303Z,102025.50
2023-04-07T13:23:43.568Z,102033.13
2023-04-07T13:26:11.953Z,102022.19
2023-04-07T13:28:40.058Z,102031.81
2023-04-07T13:31:08.198Z,102032.63
2023-04-07T13:33:37.770Z,102033.31
2023-04-07T13:36:05.972Z,102036.94
2023-04-07T13:38:34.100Z,102040.09
2023-04-07T13:41:04.190Z,102045.72
2023-04-07T13:43:32.410Z,102042.75
2023-04-07T13:46:00.530Z,102027.84
2023-04-07T13:48:28.693Z,102034.47
2023-04-07T13:50:56.701Z,102027.28
2023-04-07T13:53:25.041Z,102025.75
2023-04-07T13:55:53.135Z,102016.28
2023-04-07T13:58:22.650Z,102018.66
2023-04-07T14:00:50.875Z,102020.16
2023-04-07T14:03:19.102Z,102021.16
2023-04-07T14:05:47.329Z,102026.25
2023-04-07T14:08:15.715Z,102020.78
2023-04-07T14:10:43.775Z,102015.78
2023-04-07T14:13:12.177Z,102009.09
2023-04-07T14:15:41.761Z,102011.31
2023-04-07T14:18:10.050Z,102015.00
2023-04-07T14:20:38.520Z,101992.09
2023-04-07T14:23:06.655Z,101997.78
2023-04-07T14:25:34.761Z,102003.00
2023-04-07T14:28:03.006Z,101996.59
2023-04-07T14:30:31.250Z,102000.25
2023-04-07T14:33:02.437Z,101997.63
2023-04-07T14:35:31.988Z,101996.97
2023-04-07T14:38:00.480Z,102003.56
2023-04-07T14:40:28.645Z,101996.09
2023-04-07T14:45:30.051Z,101993.00
2023-04-07T14:47:58.091Z,101981.69
2023-04-07T14:50:28.118Z,101991.31
2023-04-07T14:52:57.891Z,101986.94
2023-04-07T14:55:26.308Z,101987.13
2023-04-07T14:57:54.408Z,101979.84
2023-04-07T15:00:22.805Z,101972.19
2023-04-07T15:02:51.160Z,101981.34
2023-04-07T15:05:19.540Z,101978.38
2023-04-07T15:07:50.759Z,101978.06
2023-04-07T15:10:19.167Z,101976.88
2023-04-07T15:12:48.762Z,101971.41
2023-04-07T15:15:17.510Z,101967.13
2023-04-07T15:17:45.783Z,101968.13
2023-04-07T15:20:14.150Z,101969.75
2023-04-07T15:22:42.372Z,101981.50
2023-04-07T15:25:11.875Z,101979.34
2023-04-07T15:27:40.030Z,101980.88
2023-04-07T15:30:09.500Z,101979.34
2023-04-07T15:32:37.681Z,101982.78
2023-04-07T15:35:06.621Z,101976.09
2023-04-07T15:37:34.750Z,101972.38
2023-04-07T15:40:02.886Z,101978.84
2023-04-07T15:42:35.678Z,101973.69
2023-04-07T15:45:03.878Z,101976.47
2023-04-07T15:47:32.043Z,101978.75
2023-04-07T15:50:00.250Z,101988.53
2023-04-07T15:52:28.683Z,101990.72
2023-04-07T15:54:57.145Z,101993.34
2023-04-07T15:57:26.539Z,102000.00
2023-04-07T15:59:57.054Z,101982.28
2023-04-07T16:02:25.388Z,101980.28
2023-04-07T16:04:54.461Z,101989.38
2023-04-07T16:07:26.097Z,101995.97
2023-04-07T16:09:54.026Z,101995.59
2023-04-07T16:12:22.595Z,101989.00
2023-04-07T16:14:51.125Z,101989.66
2023-04-07T16:17:20.824Z,101987.66
2023-04-07T16:19:48.969Z,101985.00
2023-04-07T16:22:17.067Z,101978.94
2023-04-07T16:24:45.331Z,101978.94
2023-04-07T16:27:13.436Z,101987.84
2023-04-07T16:29:41.654Z,101980.59
2023-04-07T16:32:09.832Z,101992.75
2023-04-07T16:34:39.555Z,101993.41
2023-04-07T16:37:07.775Z,101996.31
2023-04-07T16:39:35.928Z,101998.38
2023-04-07T16:42:04.260Z,101993.41
2023-04-07T16:44:33.009Z,101992.72
2023-04-07T16:47:02.939Z,101995.16
2023-04-07T16:49:31.530Z,102005.69
2023-04-07T16:52:01.106Z,102000.06
2023-04-07T16:54:29.247Z,101997.06
2023-04-07T16:56:57.347Z,101998.72
2023-04-07T16:59:25.639Z,101999.03
2023-04-07T17:01:53.835Z,101993.19
2023-04-07T17:04:22.177Z,101991.00
2023-04-07T17:06:50.322Z,101994.13
2023-04-07T17:09:20.163Z,101989.44
2023-04-07T17:11:48.356Z,101993.38
2023-04-07T17:14:16.606Z,101998.28
2023-04-07T17:16:44.884Z,101991.47
2023-04-07T17:19:13.108Z,101997.13
2023-04-07T17:21:41.328Z,101992.31
2023-04-07T17:24:09.381Z,101991.22
2023-04-07T17:26:38.943Z,101986.38
2023-04-07T17:29:07.078Z,101977.25
2023-04-07T17:31:36.212Z,101987.81
2023-04-07T17:34:04.631Z,101996.94
2023-04-07T17:36:33.856Z,101990.63
2023-04-07T17:39:03.144Z,101989.25
2023-04-07T17:41:32.797Z,101993.88
2023-04-07T17:44:02.862Z,101988.75
2023-04-07T17:46:31.320Z,101987.66
2023-04-07T17:48:59.817Z,101991.00
2023-04-07T17:51:28.963Z,101989.34
2023-04-07T17:53:57.060Z,101997.13
2023-04-07T17:56:25.709Z,102001.72
2023-04-07T17:58:53.874Z,102000.19
2023-04-07T18:01:23.602Z,102008.28
2023-04-07T18:03:53.945Z,102004.09
2023-04-07T18:06:22.801Z,102012.72
2023-04-07T18:08:51.112Z,102013.00
2023-04-07T18:11:19.479Z,102015.81
2023-04-07T18:13:47.940Z,102013.16
2023-04-07T18:16:21.436Z,102021.94
2023-04-07T18:18:52.740Z,102017.75
2023-04-07T18:21:21.437Z,102030.41
2023-04-07T18:23:49.832Z,102028.59
2023-04-07T18:26:18.206Z,102029.03
2023-04-07T18:28:46.570Z,102032.56
2023-04-07T18:31:15.454Z,102032.13
2023-04-07T18:33:43.821Z,102038.53
2023-04-07T18:36:14.514Z,102044.53
2023-04-07T18:38:42.597Z,102041.34
2023-04-07T18:41:12.706Z,102042.47
2023-04-07T18:43:40.996Z,102041.63
2023-04-07T18:46:09.257Z,102045.09
2023-04-07T18:48:37.528Z,102050.66
2023-04-07T18:51:05.812Z,102049.81
2023-04-07T18:53:35.442Z,102059.69
2023-04-07T18:56:03.748Z,102054.00
2023-04-07T18:58:32.020Z,102057.34
2023-04-07T19:01:00.305Z,102063.84
2023-04-07T19:03:28.886Z,102062.19
2023-04-07T19:05:59.062Z,102070.13
2023-04-07T19:08:27.213Z,102068.16
2023-04-07T19:10:56.818Z,102067.47
2023-04-07T19:13:24.989Z,102069.56
2023-04-07T19:15:53.178Z,102071.94
2023-04-07T19:18:21.459Z,102073.44
2023-04-07T19:20:49.591Z,102071.78
2023-04-07T19:23:17.803Z,102071.22
2023-04-07T19:25:46.179Z,102070.69
2023-04-07T19:28:15.957Z,102076.78
2023-04-07T19:30:44.249Z,102087.84
2023-04-07T19:33:12.861Z,102082.31
2023-04-07T19:35:41.498Z,102089.53
2023-04-07T19:38:09.849Z,102089.94
2023-04-07T19:40:38.083Z,102082.56
2023-04-07T19:43:07.286Z,102088.53
2023-04-07T19:45:36.981Z,102094.34
2023-04-07T19:48:05.236Z,102096.44
2023-04-07T19:50:33.337Z,102092.84
2023-04-07T19:53:01.590Z,102092.84
2023-04-07T19:55:30.689Z,102092.97
2023-04-07T19:57:58.866Z,102095.72
2023-04-07T20:00:28.190Z,102096.13
2023-04-07T20:02:57.878Z,102100.00
2023-04-07T20:05:26.341Z,102097.53
2023-04-07T20:07:54.493Z,102107.09
2023-04-07T20:10:22.539Z,102107.50
2023-04-07T20:12:50.674Z,102112.75
2023-04-07T20:15:18.932Z,102102.78
2023-04-07T20:17:48.051Z,102112.75
2023-04-07T20:20:18.378Z,102110.81
2023-04-07T20:22:46.808Z,102114.28
2023-04-07T20:25:14.985Z,102117.16
2023-04-07T20:27:45.493Z,102119.13
2023-04-07T20:30:13.755Z,102120.09
2023-04-07T20:32:41.970Z,102123.28
2023-04-07T20:35:12.088Z,102123.81
2023-04-07T20:37:42.199Z,102122.97
2023-04-07T20:40:11.326Z,102122.25
2023-04-07T20:42:39.658Z,102113.41
2023-04-07T20:45:08.462Z,102118.69
2023-04-07T20:47:37.280Z,102111.28
2023-04-07T20:50:06.115Z,102111.19
2023-04-07T20:52:36.899Z,102109.88
2023-04-07T20:55:07.749Z,102111.00
2023-04-07T20:57:36.389Z,102115.69
2023-04-07T21:00:06.084Z,102116.94
2023-04-07T21:02:34.515Z,102122.38
2023-04-07T21:05:03.726Z,102105.16
2023-04-07T21:07:31.944Z,102115.94
2023-04-07T21:10:00.161Z,102106.22
2023-04-07T21:12:29.594Z,102105.41
2023-04-07T21:14:57.656Z,102104.00
2023-04-07T21:17:25.880Z,102104.69
2023-04-07T21:19:54.013Z,102107.56
2023-04-07T21:22:22.126Z,102113.81
2023-04-07T21:24:50.191Z,102110.47
2023-04-07T21:27:19.927Z,102114.78
2023-04-07T21:29:49.709Z,102115.88
2023-04-07T21:32:17.921Z,102123.66
2023-04-07T21:34:46.056Z,102112.78
2023-04-07T21:37:14.160Z,102115.41
2023-04-07T21:39:42.382Z,102109.31
2023-04-07T21:42:10.558Z,102104.88
2023-04-07T21:44:39.104Z,102116.69
2023-04-07T21:47:08.730Z,102111.41
2023-04-07T21:49:39.054Z,102106.13
2023-04-07T21:52:07.970Z,102117.63
2023-04-07T21:54:36.518Z,102110.44
2023-04-07T21:57:04.932Z,102114.16
2023-04-07T21:59:33.072Z,102120.38
2023-04-07T22:02:01.246Z,102107.22
2023-04-07T22:04:30.932Z,102109.72
2023-04-07T22:06:59.301Z,102107.66
2023-04-07T22:09:27.654Z,102103.09
2023-04-07T22:11:56.109Z,102111.97
2023-04-07T22:14:25.092Z,102118.19
2023-04-07T22:16:53.249Z,102120.69
2023-04-07T22:19:21.631Z,102123.72
2023-04-07T22:21:51.184Z,102134.38
2023-04-07T22:24:19.848Z,102129.13
2023-04-07T22:26:48.093Z,102123.16
2023-04-07T22:29:16.271Z,102126.88
2023-04-07T22:31:44.517Z,102132.28
2023-04-07T22:34:12.766Z,102131.16
2023-04-07T22:36:40.878Z,102131.16
2023-04-07T22:39:11.008Z,102136.56
2023-04-07T22:41:39.295Z,102123.56
2023-04-07T22:44:07.434Z,102130.72
2023-04-07T22:46:35.629Z,102132.53
2023-04-07T22:49:03.813Z,102137.22
2023-04-07T22:51:32.035Z,102136.28
2023-04-07T22:54:00.119Z,102136.50
2023-04-07T22:56:29.696Z,102130.53
2023-04-07T22:59:05.511Z,102134.84
2023-04-07T23:01:34.298Z,102126.22
2023-04-07T23:04:02.468Z,102135.09
2023-04-07T23:06:31.588Z,102137.03
2023-04-07T23:08:59.797Z,102135.34
2023-04-07T23:11:29.366Z,102132.03
2023-04-07T23:13:57.430Z,102133.22
2023-04-07T23:16:26.252Z,102135.88
2023-04-07T23:18:54.333Z,102133.22
2023-04-07T23:21:22.491Z,102136.97
2023-04-07T23:23:50.697Z,102134.44
2023-04-07T23:26:18.735Z,102137.59
2023-04-07T23:28:49.182Z,102145.25
2023-04-07T23:31:17.842Z,102135.56
2023-04-07T23:33:46.916Z,102140.81
2023-04-07T23:36:15.130Z,102140.81
2023-04-07T23:38:43.394Z,102142.63
2023-04-07T23:41:11.708Z,102134.72
2023-04-07T23:43:39.881Z,102138.44
2023-04-07T23:46:09.445Z,102128.72
2023-04-07T23:48:37.758Z,102136.50
2023-04-07T23:51:06.253Z,102120.59
2023-04-07T23:53:34.417Z,102130.16
2023-04-07T23:56:02.882Z,102136.38
2023-04-07T23:58:31.022Z,102140.09
